sensor_id;sensor_type;location;lat;lon;timestamp;P1;durP1;ratioP1;P2;durP2;ratioP2
15071;SDS011;7635;56.696;13.002;2023-11-19T00:02:19;1.33;;;1.13;;
15071;SDS011;7635;56.696;13.002;2023-11-19T00:04:46;2.67;;;1.33;;
15071;SDS011;7635;56.696;13.002;2023-11-19T00:07:13;1.67;;;1.23;;
15071;SDS011;7635;56.696;13.002;2023-11-19T00:09:40;1.20;;;1.20;;
15071;SDS011;7635;56.696;13.002;2023-11-19T00:12:08;1.60;;;1.50;;
15071;SDS011;7635;56.696;13.002;2023-11-19T00:14:35;1.30;;;1.13;;
15071;SDS011;7635;56.696;13.002;2023-11-19T00:17:03;1.70;;;1.47;;
15071;SDS011;7635;56.696;13.002;2023-11-19T00:19:30;1.47;;;1.37;;
15071;SDS011;7635;56.696;13.002;2023-11-19T00:21:56;1.63;;;1.53;;
15071;SDS011;7635;56.696;13.002;2023-11-19T00:24:27;1.43;;;1.20;;
15071;SDS011;7635;56.696;13.002;2023-11-19T00:26:54;2.03;;;1.57;;
15071;SDS011;7635;56.696;13.002;2023-11-19T00:29:21;1.73;;;1.60;;
15071;SDS011;7635;56.696;13.002;2023-11-19T00:31:48;2.63;;;1.53;;
15071;SDS011;7635;56.696;13.002;2023-11-19T00:34:16;1.03;;;0.97;;
15071;SDS011;7635;56.696;13.002;2023-11-19T00:36:46;1.27;;;1.17;;
15071;SDS011;7635;56.696;13.002;2023-11-19T00:39:13;1.83;;;1.50;;
15071;SDS011;7635;56.696;13.002;2023-11-19T00:41:40;1.50;;;1.30;;
15071;SDS011;7635;56.696;13.002;2023-11-19T00:44:07;2.90;;;1.53;;
15071;SDS011;7635;56.696;13.002;2023-11-19T00:46:34;1.63;;;1.47;;
15071;SDS011;7635;56.696;13.002;2023-11-19T00:49:01;1.20;;;1.00;;
15071;SDS011;7635;56.696;13.002;2023-11-19T00:51:30;1.40;;;1.30;;
15071;SDS011;7635;56.696;13.002;2023-11-19T00:53:56;2.50;;;1.30;;
15071;SDS011;7635;56.696;13.002;2023-11-19T00:56:24;1.63;;;1.40;;
15071;SDS011;7635;56.696;13.002;2023-11-19T00:58:50;1.30;;;1.20;;
15071;SDS011;7635;56.696;13.002;2023-11-19T01:01:17;2.60;;;1.50;;
15071;SDS011;7635;56.696;13.002;2023-11-19T01:03:44;1.57;;;1.40;;
15071;SDS011;7635;56.696;13.002;2023-11-19T01:06:10;1.60;;;1.50;;
15071;SDS011;7635;56.696;13.002;2023-11-19T01:08:40;2.23;;;1.77;;
15071;SDS011;7635;56.696;13.002;2023-11-19T01:11:08;1.37;;;1.27;;
15071;SDS011;7635;56.696;13.002;2023-11-19T01:13:35;1.93;;;1.30;;
15071;SDS011;7635;56.696;13.002;2023-11-19T01:16:02;3.07;;;1.57;;
15071;SDS011;7635;56.696;13.002;2023-11-19T01:18:29;1.40;;;1.30;;
15071;SDS011;7635;56.696;13.002;2023-11-19T01:20:55;1.30;;;1.20;;
15071;SDS011;7635;56.696;13.002;2023-11-19T01:23:22;1.10;;;1.10;;
15071;SDS011;7635;56.696;13.002;2023-11-19T01:25:50;1.43;;;1.30;;
15071;SDS011;7635;56.696;13.002;2023-11-19T01:28:17;1.63;;;1.50;;
15071;SDS011;7635;56.696;13.002;2023-11-19T01:30:44;1.37;;;1.27;;
15071;SDS011;7635;56.696;13.002;2023-11-19T01:33:10;1.40;;;1.30;;
15071;SDS011;7635;56.696;13.002;2023-11-19T01:35:37;1.30;;;1.20;;
15071;SDS011;7635;56.696;13.002;2023-11-19T01:38:04;3.37;;;1.00;;
15071;SDS011;7635;56.696;13.002;2023-11-19T01:40:30;1.37;;;1.27;;
15071;SDS011;7635;56.696;13.002;2023-11-19T01:42:58;1.40;;;1.30;;
15071;SDS011;7635;56.696;13.002;2023-11-19T01:45:27;1.67;;;1.23;;
15071;SDS011;7635;56.696;13.002;2023-11-19T01:47:55;1.40;;;1.30;;
15071;SDS011;7635;56.696;13.002;2023-11-19T01:50:22;1.60;;;1.30;;
15071;SDS011;7635;56.696;13.002;2023-11-19T01:52:50;1.13;;;0.90;;
15071;SDS011;7635;56.696;13.002;2023-11-19T01:55:18;1.27;;;1.17;;
15071;SDS011;7635;56.696;13.002;2023-11-19T01:57:46;1.20;;;1.10;;
15071;SDS011;7635;56.696;13.002;2023-11-19T02:00:15;1.40;;;1.30;;
15071;SDS011;7635;56.696;13.002;2023-11-19T02:02:42;1.30;;;1.20;;
15071;SDS011;7635;56.696;13.002;2023-11-19T02:05:11;1.00;;;1.00;;
15071;SDS011;7635;56.696;13.002;2023-11-19T02:07:38;0.90;;;0.90;;
15071;SDS011;7635;56.696;13.002;2023-11-19T02:10:05;1.20;;;1.10;;
15071;SDS011;7635;56.696;13.002;2023-11-19T02:12:37;1.37;;;1.27;;
15071;SDS011;7635;56.696;13.002;2023-11-19T02:15:08;1.40;;;1.13;;
15071;SDS011;7635;56.696;13.002;2023-11-19T02:17:36;1.30;;;1.20;;
15071;SDS011;7635;56.696;13.002;2023-11-19T02:20:03;1.47;;;1.20;;
15071;SDS011;7635;56.696;13.002;2023-11-19T02:22:34;2.37;;;1.00;;
15071;SDS011;7635;56.696;13.002;2023-11-19T02:25:04;1.43;;;1.10;;
15071;SDS011;7635;56.696;13.002;2023-11-19T02:27:44;0.90;;;0.90;;
15071;SDS011;7635;56.696;13.002;2023-11-19T02:30:14;0.93;;;0.87;;
15071;SDS011;7635;56.696;13.002;2023-11-19T02:32:41;1.13;;;1.03;;
15071;SDS011;7635;56.696;13.002;2023-11-19T02:35:08;1.10;;;1.10;;
15071;SDS011;7635;56.696;13.002;2023-11-19T02:37:35;1.83;;;1.23;;
15071;SDS011;7635;56.696;13.002;2023-11-19T02:40:02;1.40;;;1.30;;
15071;SDS011;7635;56.696;13.002;2023-11-19T02:42:30;1.23;;;1.13;;
15071;SDS011;7635;56.696;13.002;2023-11-19T02:44:58;1.00;;;1.00;;
15071;SDS011;7635;56.696;13.002;2023-11-19T02:47:25;1.30;;;1.20;;
15071;SDS011;7635;56.696;13.002;2023-11-19T02:49:53;2.57;;;1.17;;
15071;SDS011;7635;56.696;13.002;2023-11-19T02:52:20;1.37;;;1.27;;
15071;SDS011;7635;56.696;13.002;2023-11-19T02:54:46;1.50;;;1.40;;
15071;SDS011;7635;56.696;13.002;2023-11-19T02:57:13;1.30;;;1.20;;
15071;SDS011;7635;56.696;13.002;2023-11-19T02:59:40;1.23;;;1.13;;
15071;SDS011;7635;56.696;13.002;2023-11-19T03:02:09;1.00;;;1.00;;
15071;SDS011;7635;56.696;13.002;2023-11-19T03:04:36;1.03;;;1.03;;
15071;SDS011;7635;56.696;13.002;2023-11-19T03:07:04;1.23;;;1.13;;
15071;SDS011;7635;56.696;13.002;2023-11-19T03:09:32;1.43;;;1.33;;
15071;SDS011;7635;56.696;13.002;2023-11-19T03:11:59;1.27;;;1.17;;
15071;SDS011;7635;56.696;13.002;2023-11-19T03:14:26;1.50;;;1.40;;
15071;SDS011;7635;56.696;13.002;2023-11-19T03:16:53;1.10;;;1.00;;
15071;SDS011;7635;56.696;13.002;2023-11-19T03:19:21;1.50;;;1.30;;
15071;SDS011;7635;56.696;13.002;2023-11-19T03:21:47;0.77;;;0.77;;
15071;SDS011;7635;56.696;13.002;2023-11-19T03:24:14;1.00;;;1.00;;
15071;SDS011;7635;56.696;13.002;2023-11-19T03:26:42;0.90;;;0.90;;
15071;SDS011;7635;56.696;13.002;2023-11-19T03:29:08;1.27;;;1.17;;
15071;SDS011;7635;56.696;13.002;2023-11-19T03:31:35;1.33;;;1.23;;
15071;SDS011;7635;56.696;13.002;2023-11-19T03:34:03;0.90;;;0.90;;
15071;SDS011;7635;56.696;13.002;2023-11-19T03:36:34;1.40;;;1.20;;
15071;SDS011;7635;56.696;13.002;2023-11-19T03:39:01;1.53;;;1.27;;
15071;SDS011;7635;56.696;13.002;2023-11-19T03:41:28;2.43;;;1.30;;
15071;SDS011;7635;56.696;13.002;2023-11-19T03:43:55;2.63;;;1.07;;
15071;SDS011;7635;56.696;13.002;2023-11-19T03:46:22;0.90;;;0.90;;
15071;SDS011;7635;56.696;13.002;2023-11-19T03:48:49;1.60;;;1.03;;
15071;SDS011;7635;56.696;13.002;2023-11-19T03:51:16;0.93;;;0.90;;
15071;SDS011;7635;56.696;13.002;2023-11-19T03:53:45;1.20;;;1.10;;
15071;SDS011;7635;56.696;13.002;2023-11-19T03:56:12;1.17;;;1.17;;
15071;SDS011;7635;56.696;13.002;2023-11-19T03:58:39;0.77;;;0.77;;
15071;SDS011;7635;56.696;13.002;2023-11-19T04:01:06;1.00;;;1.00;;
15071;SDS011;7635;56.696;13.002;2023-11-19T04:03:36;1.70;;;1.20;;
15071;SDS011;7635;56.696;13.002;2023-11-19T04:06:03;1.03;;;1.00;;
15071;SDS011;7635;56.696;13.002;2023-11-19T04:08:30;1.73;;;0.93;;
15071;SDS011;7635;56.696;13.002;2023-11-19T04:10:59;0.90;;;0.90;;
15071;SDS011;7635;56.696;13.002;2023-11-19T04:13:27;1.20;;;1.10;;
15071;SDS011;7635;56.696;13.002;2023-11-19T04:15:53;1.20;;;1.10;;
15071;SDS011;7635;56.696;13.002;2023-11-19T04:18:20;0.90;;;0.90;;
15071;SDS011;7635;56.696;13.002;2023-11-19T04:20:47;1.13;;;1.03;;
15071;SDS011;7635;56.696;13.002;2023-11-19T04:23:13;1.47;;;1.00;;
15071;SDS011;7635;56.696;13.002;2023-11-19T04:25:40;1.20;;;1.10;;
15071;SDS011;7635;56.696;13.002;2023-11-19T04:28:08;2.40;;;1.30;;
15071;SDS011;7635;56.696;13.002;2023-11-19T04:30:35;1.10;;;0.93;;
15071;SDS011;7635;56.696;13.002;2023-11-19T04:33:02;1.53;;;1.33;;
15071;SDS011;7635;56.696;13.002;2023-11-19T04:35:29;2.20;;;1.20;;
15071;SDS011;7635;56.696;13.002;2023-11-19T04:37:55;1.70;;;1.60;;
15071;SDS011;7635;56.696;13.002;2023-11-19T04:40:23;1.40;;;1.17;;
15071;SDS011;7635;56.696;13.002;2023-11-19T04:42:49;1.30;;;1.20;;
15071;SDS011;7635;56.696;13.002;2023-11-19T04:45:18;2.20;;;1.23;;
15071;SDS011;7635;56.696;13.002;2023-11-19T04:47:45;1.50;;;1.40;;
15071;SDS011;7635;56.696;13.002;2023-11-19T04:50:12;0.90;;;0.90;;
15071;SDS011;7635;56.696;13.002;2023-11-19T04:52:38;1.53;;;1.37;;
15071;SDS011;7635;56.696;13.002;2023-11-19T04:55:07;1.43;;;1.33;;
15071;SDS011;7635;56.696;13.002;2023-11-19T04:57:36;4.43;;;1.67;;
15071;SDS011;7635;56.696;13.002;2023-11-19T05:00:03;1.77;;;1.40;;
15071;SDS011;7635;56.696;13.002;2023-11-19T05:02:33;1.17;;;1.10;;
15071;SDS011;7635;56.696;13.002;2023-11-19T05:05:00;1.20;;;1.20;;
15071;SDS011;7635;56.696;13.002;2023-11-19T05:07:28;2.40;;;1.40;;
15071;SDS011;7635;56.696;13.002;2023-11-19T05:09:55;1.60;;;1.43;;
15071;SDS011;7635;56.696;13.002;2023-11-19T05:12:22;1.47;;;1.37;;
15071;SDS011;7635;56.696;13.002;2023-11-19T05:14:49;2.07;;;1.27;;
15071;SDS011;7635;56.696;13.002;2023-11-19T05:17:15;2.77;;;1.50;;
15071;SDS011;7635;56.696;13.002;2023-11-19T05:19:45;2.00;;;1.70;;
15071;SDS011;7635;56.696;13.002;2023-11-19T05:22:12;1.00;;;1.00;;
15071;SDS011;7635;56.696;13.002;2023-11-19T05:24:39;2.23;;;1.07;;
15071;SDS011;7635;56.696;13.002;2023-11-19T05:27:06;1.30;;;1.20;;
15071;SDS011;7635;56.696;13.002;2023-11-19T05:29:33;1.80;;;1.70;;
15071;SDS011;7635;56.696;13.002;2023-11-19T05:32:00;2.10;;;1.83;;
15071;SDS011;7635;56.696;13.002;2023-11-19T05:34:27;1.77;;;1.37;;
15071;SDS011;7635;56.696;13.002;2023-11-19T05:36:55;1.40;;;1.30;;
15071;SDS011;7635;56.696;13.002;2023-11-19T05:39:22;3.13;;;1.47;;
15071;SDS011;7635;56.696;13.002;2023-11-19T05:41:49;2.33;;;1.60;;
15071;SDS011;7635;56.696;13.002;2023-11-19T05:44:16;1.53;;;0.97;;
15071;SDS011;7635;56.696;13.002;2023-11-19T05:46:43;2.43;;;1.90;;
15071;SDS011;7635;56.696;13.002;2023-11-19T05:49:10;2.80;;;1.83;;
15071;SDS011;7635;56.696;13.002;2023-11-19T05:51:38;1.90;;;1.70;;
15071;SDS011;7635;56.696;13.002;2023-11-19T05:54:06;1.60;;;1.50;;
15071;SDS011;7635;56.696;13.002;2023-11-19T05:56:35;2.13;;;1.93;;
15071;SDS011;7635;56.696;13.002;2023-11-19T05:59:02;2.30;;;1.90;;
15071;SDS011;7635;56.696;13.002;2023-11-19T06:01:32;1.83;;;1.40;;
15071;SDS011;7635;56.696;13.002;2023-11-19T06:03:59;3.90;;;1.93;;
15071;SDS011;7635;56.696;13.002;2023-11-19T06:06:26;3.10;;;1.57;;
15071;SDS011;7635;56.696;13.002;2023-11-19T06:08:54;2.20;;;1.57;;
15071;SDS011;7635;56.696;13.002;2023-11-19T06:11:22;1.53;;;1.30;;
15071;SDS011;7635;56.696;13.002;2023-11-19T06:13:51;2.17;;;1.60;;
15071;SDS011;7635;56.696;13.002;2023-11-19T06:16:18;1.70;;;1.60;;
15071;SDS011;7635;56.696;13.002;2023-11-19T06:18:45;2.27;;;1.57;;
15071;SDS011;7635;56.696;13.002;2023-11-19T06:21:12;1.87;;;1.60;;
15071;SDS011;7635;56.696;13.002;2023-11-19T06:23:39;1.93;;;1.63;;
15071;SDS011;7635;56.696;13.002;2023-11-19T06:26:06;1.90;;;1.80;;
15071;SDS011;7635;56.696;13.002;2023-11-19T06:28:34;1.83;;;1.70;;
15071;SDS011;7635;56.696;13.002;2023-11-19T06:31:01;1.60;;;1.37;;
15071;SDS011;7635;56.696;13.002;2023-11-19T06:33:29;3.70;;;1.40;;
15071;SDS011;7635;56.696;13.002;2023-11-19T06:35:55;2.23;;;1.70;;
15071;SDS011;7635;56.696;13.002;2023-11-19T06:38:22;2.87;;;1.40;;
15071;SDS011;7635;56.696;13.002;2023-11-19T06:40:49;1.53;;;1.43;;
15071;SDS011;7635;56.696;13.002;2023-11-19T06:43:15;2.70;;;1.50;;
15071;SDS011;7635;56.696;13.002;2023-11-19T06:45:44;1.97;;;1.70;;
15071;SDS011;7635;56.696;13.002;2023-11-19T06:48:11;2.60;;;1.50;;
15071;SDS011;7635;56.696;13.002;2023-11-19T06:50:37;1.23;;;1.07;;
15071;SDS011;7635;56.696;13.002;2023-11-19T06:53:04;1.70;;;1.60;;
15071;SDS011;7635;56.696;13.002;2023-11-19T06:55:35;2.23;;;1.57;;
15071;SDS011;7635;56.696;13.002;2023-11-19T06:58:01;1.80;;;1.67;;
15071;SDS011;7635;56.696;13.002;2023-11-19T07:00:28;2.37;;;1.70;;
15071;SDS011;7635;56.696;13.002;2023-11-19T07:02:58;1.53;;;1.43;;
15071;SDS011;7635;56.696;13.002;2023-11-19T07:05:25;1.63;;;1.53;;
15071;SDS011;7635;56.696;13.002;2023-11-19T07:07:53;2.10;;;1.87;;
15071;SDS011;7635;56.696;13.002;2023-11-19T07:10:20;2.37;;;1.33;;
15071;SDS011;7635;56.696;13.002;2023-11-19T07:12:47;1.93;;;1.73;;
15071;SDS011;7635;56.696;13.002;2023-11-19T07:15:14;1.23;;;1.13;;
15071;SDS011;7635;56.696;13.002;2023-11-19T07:17:42;3.80;;;2.13;;
15071;SDS011;7635;56.696;13.002;2023-11-19T07:20:15;4.90;;;1.23;;
15071;SDS011;7635;56.696;13.002;2023-11-19T07:22:42;1.53;;;1.40;;
15071;SDS011;7635;56.696;13.002;2023-11-19T07:25:10;2.93;;;2.10;;
15071;SDS011;7635;56.696;13.002;2023-11-19T07:27:37;3.57;;;2.07;;
15071;SDS011;7635;56.696;13.002;2023-11-19T07:30:05;2.00;;;1.80;;
15071;SDS011;7635;56.696;13.002;2023-11-19T07:32:32;2.43;;;1.53;;
15071;SDS011;7635;56.696;13.002;2023-11-19T07:34:59;2.20;;;2.00;;
15071;SDS011;7635;56.696;13.002;2023-11-19T07:37:27;2.07;;;1.87;;
15071;SDS011;7635;56.696;13.002;2023-11-19T07:39:54;4.50;;;2.23;;
15071;SDS011;7635;56.696;13.002;2023-11-19T07:42:20;1.37;;;1.27;;
15071;SDS011;7635;56.696;13.002;2023-11-19T07:44:48;3.03;;;2.23;;
15071;SDS011;7635;56.696;13.002;2023-11-19T07:47:14;2.40;;;1.90;;
15071;SDS011;7635;56.696;13.002;2023-11-19T07:49:41;1.80;;;1.67;;
15071;SDS011;7635;56.696;13.002;2023-11-19T07:52:08;2.20;;;2.00;;
15071;SDS011;7635;56.696;13.002;2023-11-19T07:54:36;2.80;;;1.97;;
15071;SDS011;7635;56.696;13.002;2023-11-19T07:57:03;2.30;;;1.90;;
15071;SDS011;7635;56.696;13.002;2023-11-19T07:59:30;2.67;;;2.27;;
15071;SDS011;7635;56.696;13.002;2023-11-19T08:01:56;2.33;;;1.80;;
15071;SDS011;7635;56.696;13.002;2023-11-19T08:04:23;2.33;;;2.00;;
15071;SDS011;7635;56.696;13.002;2023-11-19T08:06:50;4.23;;;2.33;;
15071;SDS011;7635;56.696;13.002;2023-11-19T08:09:17;3.23;;;2.03;;
15071;SDS011;7635;56.696;13.002;2023-11-19T08:11:45;2.37;;;2.17;;
15071;SDS011;7635;56.696;13.002;2023-11-19T08:14:12;2.33;;;1.83;;
15071;SDS011;7635;56.696;13.002;2023-11-19T08:16:39;2.53;;;2.17;;
15071;SDS011;7635;56.696;13.002;2023-11-19T08:19:06;3.47;;;2.33;;
15071;SDS011;7635;56.696;13.002;2023-11-19T08:21:33;3.10;;;2.43;;
15071;SDS011;7635;56.696;13.002;2023-11-19T08:24:00;3.53;;;2.40;;
15071;SDS011;7635;56.696;13.002;2023-11-19T08:26:26;2.20;;;2.00;;
15071;SDS011;7635;56.696;13.002;2023-11-19T08:28:55;2.43;;;2.23;;
15071;SDS011;7635;56.696;13.002;2023-11-19T08:31:24;3.77;;;2.90;;
15071;SDS011;7635;56.696;13.002;2023-11-19T08:33:51;3.20;;;2.33;;
15071;SDS011;7635;56.696;13.002;2023-11-19T08:36:17;3.67;;;2.37;;
15071;SDS011;7635;56.696;13.002;2023-11-19T08:38:44;2.27;;;1.83;;
15071;SDS011;7635;56.696;13.002;2023-11-19T08:41:11;4.77;;;2.30;;
15071;SDS011;7635;56.696;13.002;2023-11-19T08:43:38;2.10;;;1.70;;
15071;SDS011;7635;56.696;13.002;2023-11-19T08:46:10;2.93;;;2.50;;
15071;SDS011;7635;56.696;13.002;2023-11-19T08:48:37;2.87;;;2.13;;
15071;SDS011;7635;56.696;13.002;2023-11-19T08:51:04;2.93;;;2.23;;
15071;SDS011;7635;56.696;13.002;2023-11-19T08:53:31;3.77;;;2.37;;
15071;SDS011;7635;56.696;13.002;2023-11-19T08:55:58;2.57;;;1.63;;
15071;SDS011;7635;56.696;13.002;2023-11-19T08:58:25;3.33;;;2.57;;
15071;SDS011;7635;56.696;13.002;2023-11-19T09:00:52;3.57;;;2.80;;
15071;SDS011;7635;56.696;13.002;2023-11-19T09:03:20;3.40;;;1.97;;
15071;SDS011;7635;56.696;13.002;2023-11-19T09:05:47;2.63;;;2.40;;
15071;SDS011;7635;56.696;13.002;2023-11-19T09:08:13;4.53;;;2.57;;
15071;SDS011;7635;56.696;13.002;2023-11-19T09:10:40;4.50;;;3.07;;
15071;SDS011;7635;56.696;13.002;2023-11-19T09:13:07;3.17;;;2.37;;
15071;SDS011;7635;56.696;13.002;2023-11-19T09:15:33;4.73;;;3.03;;
15071;SDS011;7635;56.696;13.002;2023-11-19T09:18:00;5.20;;;3.10;;
15071;SDS011;7635;56.696;13.002;2023-11-19T09:20:28;4.17;;;2.90;;
15071;SDS011;7635;56.696;13.002;2023-11-19T09:23:02;4.27;;;3.20;;
15071;SDS011;7635;56.696;13.002;2023-11-19T09:25:29;4.40;;;3.20;;
15071;SDS011;7635;56.696;13.002;2023-11-19T09:27:56;3.50;;;2.43;;
15071;SDS011;7635;56.696;13.002;2023-11-19T09:30:22;4.10;;;2.80;;
15071;SDS011;7635;56.696;13.002;2023-11-19T09:32:49;2.40;;;2.20;;
15071;SDS011;7635;56.696;13.002;2023-11-19T09:35:16;4.77;;;3.80;;
15071;SDS011;7635;56.696;13.002;2023-11-19T09:37:44;4.63;;;2.93;;
15071;SDS011;7635;56.696;13.002;2023-11-19T09:40:11;5.73;;;2.93;;
15071;SDS011;7635;56.696;13.002;2023-11-19T09:42:39;4.60;;;3.40;;
15071;SDS011;7635;56.696;13.002;2023-11-19T09:45:11;5.77;;;2.80;;
15071;SDS011;7635;56.696;13.002;2023-11-19T09:47:39;3.47;;;2.90;;
15071;SDS011;7635;56.696;13.002;2023-11-19T09:50:07;5.37;;;3.10;;
15071;SDS011;7635;56.696;13.002;2023-11-19T09:52:35;3.13;;;2.67;;
15071;SDS011;7635;56.696;13.002;2023-11-19T09:55:03;4.43;;;3.23;;
15071;SDS011;7635;56.696;13.002;2023-11-19T09:57:30;4.13;;;2.60;;
15071;SDS011;7635;56.696;13.002;2023-11-19T10:00:02;5.10;;;3.73;;
15071;SDS011;7635;56.696;13.002;2023-11-19T10:02:29;4.77;;;3.20;;
15071;SDS011;7635;56.696;13.002;2023-11-19T10:04:59;4.10;;;2.70;;
15071;SDS011;7635;56.696;13.002;2023-11-19T10:07:27;5.47;;;3.93;;
15071;SDS011;7635;56.696;13.002;2023-11-19T10:09:54;1.97;;;1.30;;
15071;SDS011;7635;56.696;13.002;2023-11-19T10:12:22;4.83;;;3.70;;
15071;SDS011;7635;56.696;13.002;2023-11-19T10:14:49;7.53;;;3.60;;
15071;SDS011;7635;56.696;13.002;2023-11-19T10:17:16;5.97;;;3.37;;
15071;SDS011;7635;56.696;13.002;2023-11-19T10:19:43;3.13;;;2.63;;
15071;SDS011;7635;56.696;13.002;2023-11-19T10:22:10;4.47;;;3.50;;
15071;SDS011;7635;56.696;13.002;2023-11-19T10:24:39;6.37;;;3.60;;
15071;SDS011;7635;56.696;13.002;2023-11-19T10:27:07;4.53;;;3.20;;
15071;SDS011;7635;56.696;13.002;2023-11-19T10:29:37;5.67;;;4.20;;
15071;SDS011;7635;56.696;13.002;2023-11-19T10:32:04;3.83;;;2.80;;
15071;SDS011;7635;56.696;13.002;2023-11-19T10:34:31;5.00;;;3.10;;
15071;SDS011;7635;56.696;13.002;2023-11-19T10:36:57;6.30;;;3.77;;
15071;SDS011;7635;56.696;13.002;2023-11-19T10:39:25;3.23;;;2.77;;
15071;SDS011;7635;56.696;13.002;2023-11-19T10:42:15;5.63;;;4.10;;
15071;SDS011;7635;56.696;13.002;2023-11-19T10:44:43;5.33;;;3.17;;
15071;SDS011;7635;56.696;13.002;2023-11-19T10:47:10;9.50;;;3.90;;
15071;SDS011;7635;56.696;13.002;2023-11-19T10:49:40;7.83;;;4.57;;
15071;SDS011;7635;56.696;13.002;2023-11-19T10:52:07;5.23;;;3.10;;
15071;SDS011;7635;56.696;13.002;2023-11-19T10:54:35;5.77;;;2.90;;
15071;SDS011;7635;56.696;13.002;2023-11-19T10:57:03;6.10;;;3.13;;
15071;SDS011;7635;56.696;13.002;2023-11-19T10:59:33;3.53;;;2.50;;
15071;SDS011;7635;56.696;13.002;2023-11-19T11:02:06;4.33;;;3.20;;
15071;SDS011;7635;56.696;13.002;2023-11-19T11:04:37;2.80;;;2.17;;
15071;SDS011;7635;56.696;13.002;2023-11-19T11:07:07;8.07;;;3.67;;
15071;SDS011;7635;56.696;13.002;2023-11-19T11:09:35;4.73;;;3.30;;
15071;SDS011;7635;56.696;13.002;2023-11-19T11:12:01;3.50;;;2.90;;
15071;SDS011;7635;56.696;13.002;2023-11-19T11:14:29;3.87;;;2.83;;
15071;SDS011;7635;56.696;13.002;2023-11-19T11:17:00;3.40;;;3.10;;
15071;SDS011;7635;56.696;13.002;2023-11-19T11:19:32;3.53;;;3.03;;
15071;SDS011;7635;56.696;13.002;2023-11-19T11:21:59;4.80;;;2.53;;
15071;SDS011;7635;56.696;13.002;2023-11-19T11:27:28;5.00;;;2.73;;
15071;SDS011;7635;56.696;13.002;2023-11-19T11:30:11;4.47;;;3.10;;
15071;SDS011;7635;56.696;13.002;2023-11-19T11:32:53;5.07;;;2.97;;
15071;SDS011;7635;56.696;13.002;2023-11-19T11:35:29;4.80;;;3.33;;
15071;SDS011;7635;56.696;13.002;2023-11-19T11:38:03;4.10;;;3.00;;
15071;SDS011;7635;56.696;13.002;2023-11-19T11:40:32;4.93;;;2.63;;
15071;SDS011;7635;56.696;13.002;2023-11-19T11:43:01;4.63;;;3.20;;
15071;SDS011;7635;56.696;13.002;2023-11-19T11:45:36;3.87;;;3.00;;
15071;SDS011;7635;56.696;13.002;2023-11-19T11:48:12;5.57;;;2.80;;
15071;SDS011;7635;56.696;13.002;2023-11-19T11:50:48;3.67;;;2.70;;
15071;SDS011;7635;56.696;13.002;2023-11-19T11:53:16;4.03;;;2.43;;
15071;SDS011;7635;56.696;13.002;2023-11-19T11:55:54;3.30;;;2.20;;
15071;SDS011;7635;56.696;13.002;2023-11-19T11:58:30;3.53;;;2.63;;
15071;SDS011;7635;56.696;13.002;2023-11-19T12:00:59;3.73;;;2.33;;
15071;SDS011;7635;56.696;13.002;2023-11-19T12:03:29;4.50;;;2.63;;
15071;SDS011;7635;56.696;13.002;2023-11-19T12:05:58;3.30;;;2.70;;
15071;SDS011;7635;56.696;13.002;2023-11-19T12:08:25;3.73;;;2.60;;
15071;SDS011;7635;56.696;13.002;2023-11-19T12:10:54;4.33;;;2.50;;
15071;SDS011;7635;56.696;13.002;2023-11-19T12:13:23;3.77;;;2.37;;
15071;SDS011;7635;56.696;13.002;2023-11-19T12:16:09;1.60;;;1.50;;
15071;SDS011;7635;56.696;13.002;2023-11-19T12:18:38;4.07;;;2.60;;
15071;SDS011;7635;56.696;13.002;2023-11-19T12:21:06;3.50;;;2.50;;
15071;SDS011;7635;56.696;13.002;2023-11-19T12:23:34;4.23;;;2.37;;
15071;SDS011;7635;56.696;13.002;2023-11-19T12:26:01;3.83;;;2.43;;
15071;SDS011;7635;56.696;13.002;2023-11-19T12:28:28;2.53;;;2.20;;
15071;SDS011;7635;56.696;13.002;2023-11-19T12:31:06;2.70;;;2.10;;
15071;SDS011;7635;56.696;13.002;2023-11-19T12:33:35;4.40;;;2.20;;
15071;SDS011;7635;56.696;13.002;2023-11-19T12:36:04;3.83;;;2.27;;
15071;SDS011;7635;56.696;13.002;2023-11-19T12:38:32;2.60;;;2.33;;
15071;SDS011;7635;56.696;13.002;2023-11-19T12:41:02;2.27;;;1.97;;
15071;SDS011;7635;56.696;13.002;2023-11-19T12:43:29;2.93;;;2.63;;
15071;SDS011;7635;56.696;13.002;2023-11-19T12:45:56;2.03;;;1.67;;
15071;SDS011;7635;56.696;13.002;2023-11-19T12:48:23;2.37;;;2.00;;
15071;SDS011;7635;56.696;13.002;2023-11-19T12:50:50;2.33;;;1.80;;
15071;SDS011;7635;56.696;13.002;2023-11-19T12:53:19;3.43;;;2.60;;
15071;SDS011;7635;56.696;13.002;2023-11-19T12:55:46;2.70;;;2.50;;
15071;SDS011;7635;56.696;13.002;2023-11-19T12:58:27;2.30;;;2.00;;
15071;SDS011;7635;56.696;13.002;2023-11-19T13:00:58;2.50;;;2.00;;
15071;SDS011;7635;56.696;13.002;2023-11-19T13:03:29;2.63;;;1.83;;
15071;SDS011;7635;56.696;13.002;2023-11-19T13:06:00;2.67;;;2.00;;
15071;SDS011;7635;56.696;13.002;2023-11-19T13:08:35;2.80;;;2.13;;
15071;SDS011;7635;56.696;13.002;2023-11-19T13:11:03;4.10;;;2.37;;
15071;SDS011;7635;56.696;13.002;2023-11-19T13:13:31;5.97;;;2.33;;
15071;SDS011;7635;56.696;13.002;2023-11-19T13:16:01;2.83;;;1.87;;
15071;SDS011;7635;56.696;13.002;2023-11-19T13:18:30;1.93;;;1.73;;
15071;SDS011;7635;56.696;13.002;2023-11-19T13:20:57;2.40;;;1.90;;
15071;SDS011;7635;56.696;13.002;2023-11-19T13:23:23;2.00;;;1.80;;
15071;SDS011;7635;56.696;13.002;2023-11-19T13:25:51;1.77;;;1.67;;
15071;SDS011;7635;56.696;13.002;2023-11-19T13:28:18;2.13;;;1.90;;
15071;SDS011;7635;56.696;13.002;2023-11-19T13:30:45;2.43;;;2.07;;
15071;SDS011;7635;56.696;13.002;2023-11-19T13:33:11;3.67;;;2.33;;
15071;SDS011;7635;56.696;13.002;2023-11-19T13:35:38;2.50;;;2.00;;
15071;SDS011;7635;56.696;13.002;2023-11-19T13:38:06;3.83;;;1.97;;
15071;SDS011;7635;56.696;13.002;2023-11-19T13:40:33;2.57;;;2.20;;
15071;SDS011;7635;56.696;13.002;2023-11-19T13:43:01;3.27;;;2.00;;
15071;SDS011;7635;56.696;13.002;2023-11-19T13:45:28;2.37;;;1.67;;
15071;SDS011;7635;56.696;13.002;2023-11-19T13:47:55;1.37;;;1.20;;
15071;SDS011;7635;56.696;13.002;2023-11-19T13:50:22;2.23;;;2.03;;
15071;SDS011;7635;56.696;13.002;2023-11-19T13:52:48;2.80;;;2.07;;
15071;SDS011;7635;56.696;13.002;2023-11-19T13:55:15;1.90;;;1.70;;
15071;SDS011;7635;56.696;13.002;2023-11-19T13:57:43;2.57;;;1.80;;
15071;SDS011;7635;56.696;13.002;2023-11-19T14:00:12;1.97;;;1.70;;
15071;SDS011;7635;56.696;13.002;2023-11-19T14:02:41;2.50;;;1.77;;
15071;SDS011;7635;56.696;13.002;2023-11-19T14:05:08;2.10;;;1.80;;
15071;SDS011;7635;56.696;13.002;2023-11-19T14:07:36;3.00;;;1.60;;
15071;SDS011;7635;56.696;13.002;2023-11-19T14:10:03;2.40;;;1.93;;
15071;SDS011;7635;56.696;13.002;2023-11-19T14:12:31;2.50;;;1.70;;
15071;SDS011;7635;56.696;13.002;2023-11-19T14:14:58;1.73;;;1.63;;
15071;SDS011;7635;56.696;13.002;2023-11-19T14:17:26;2.40;;;1.80;;
15071;SDS011;7635;56.696;13.002;2023-11-19T14:19:53;2.23;;;1.60;;
15071;SDS011;7635;56.696;13.002;2023-11-19T14:22:20;5.17;;;1.77;;
15071;SDS011;7635;56.696;13.002;2023-11-19T14:24:46;2.90;;;1.97;;
15071;SDS011;7635;56.696;13.002;2023-11-19T14:27:13;1.30;;;1.20;;
15071;SDS011;7635;56.696;13.002;2023-11-19T14:29:41;4.97;;;2.27;;
15071;SDS011;7635;56.696;13.002;2023-11-19T14:32:08;3.93;;;1.87;;
15071;SDS011;7635;56.696;13.002;2023-11-19T14:34:36;2.63;;;2.37;;
15071;SDS011;7635;56.696;13.002;2023-11-19T14:37:03;2.77;;;1.77;;
15071;SDS011;7635;56.696;13.002;2023-11-19T14:39:30;2.57;;;2.03;;
15071;SDS011;7635;56.696;13.002;2023-11-19T14:41:57;2.60;;;2.10;;
15071;SDS011;7635;56.696;13.002;2023-11-19T14:44:26;2.23;;;1.60;;
15071;SDS011;7635;56.696;13.002;2023-11-19T14:46:54;2.80;;;2.13;;
15071;SDS011;7635;56.696;13.002;2023-11-19T14:49:20;3.33;;;2.40;;
15071;SDS011;7635;56.696;13.002;2023-11-19T14:51:50;2.10;;;1.70;;
15071;SDS011;7635;56.696;13.002;2023-11-19T14:54:16;2.30;;;2.07;;
15071;SDS011;7635;56.696;13.002;2023-11-19T14:56:43;2.30;;;2.10;;